Terminal Aerodrome Forecast
Issued by NWS

Home | Current Version | Previous Version | Text Only | Print | Product List | Glossary On
Versions: 1 2 3 4 5 6 7 8 9 10 11 12 13 14 15 16 17 18 19 20
786
FTAK31 PAJN 290531
TAFAJN
TAF
PAJN 290531Z 2906/3006 08010KT P6SM -SHRA FEW025 BKN035 OVC050
     FM291000 10012KT 5SM -SHRA BR SCT020 OVC030
     FM291500 11010KT 6SM -SHRA BKN018 OVC030
     FM292100 11008KT P6SM -SHRA OVC025=

USA.gov is the U.S. government's official web portal to all federal, state and local government web resources and services.